sensor_id;sensor_type;location;lat;lon;timestamp;P1;durP1;ratioP1;P2;durP2;ratioP2
22754;SDS011;11544;42.020;23.094;2023-03-24T00:00:28;5.90;;;3.78;;
22754;SDS011;11544;42.020;23.094;2023-03-24T00:02:55;7.50;;;4.68;;
22754;SDS011;11544;42.020;23.094;2023-03-24T00:05:27;6.43;;;4.22;;
22754;SDS011;11544;42.020;23.094;2023-03-24T00:07:56;5.15;;;3.92;;
22754;SDS011;11544;42.020;23.094;2023-03-24T00:10:27;4.57;;;3.92;;
22754;SDS011;11544;42.020;23.094;2023-03-24T00:12:56;5.80;;;4.15;;
22754;SDS011;11544;42.020;23.094;2023-03-24T00:15:24;7.28;;;5.10;;
22754;SDS011;11544;42.020;23.094;2023-03-24T00:17:51;10.90;;;6.68;;
22754;SDS011;11544;42.020;23.094;2023-03-24T00:20:21;8.80;;;6.18;;
22754;SDS011;11544;42.020;23.094;2023-03-24T00:22:50;11.52;;;7.15;;
22754;SDS011;11544;42.020;23.094;2023-03-24T00:25:23;9.88;;;6.93;;
22754;SDS011;11544;42.020;23.094;2023-03-24T00:27:55;11.88;;;6.90;;
22754;SDS011;11544;42.020;23.094;2023-03-24T00:30:23;7.95;;;5.88;;
22754;SDS011;11544;42.020;23.094;2023-03-24T00:32:51;8.27;;;5.32;;
22754;SDS011;11544;42.020;23.094;2023-03-24T00:35:19;8.20;;;5.60;;
22754;SDS011;11544;42.020;23.094;2023-03-24T00:37:46;8.45;;;5.20;;
22754;SDS011;11544;42.020;23.094;2023-03-24T00:40:18;6.53;;;5.07;;
22754;SDS011;11544;42.020;23.094;2023-03-24T00:42:47;5.47;;;4.32;;
22754;SDS011;11544;42.020;23.094;2023-03-24T00:45:18;6.93;;;4.25;;
22754;SDS011;11544;42.020;23.094;2023-03-24T00:47:49;5.97;;;4.47;;
22754;SDS011;11544;42.020;23.094;2023-03-24T00:50:20;8.35;;;4.38;;
22754;SDS011;11544;42.020;23.094;2023-03-24T00:52:53;7.03;;;4.95;;
22754;SDS011;11544;42.020;23.094;2023-03-24T00:55:20;8.45;;;5.45;;
22754;SDS011;11544;42.020;23.094;2023-03-24T00:57:48;8.30;;;4.82;;
22754;SDS011;11544;42.020;23.094;2023-03-24T01:00:20;7.13;;;4.28;;
22754;SDS011;11544;42.020;23.094;2023-03-24T01:02:50;5.75;;;4.10;;
22754;SDS011;11544;42.020;23.094;2023-03-24T01:05:23;7.15;;;4.60;;
22754;SDS011;11544;42.020;23.094;2023-03-24T01:07:57;8.52;;;4.57;;
22754;SDS011;11544;42.020;23.094;2023-03-24T01:10:30;7.57;;;4.75;;
22754;SDS011;11544;42.020;23.094;2023-03-24T01:12:59;6.45;;;4.47;;
22754;SDS011;11544;42.020;23.094;2023-03-24T01:15:28;7.05;;;4.78;;
22754;SDS011;11544;42.020;23.094;2023-03-24T01:17:59;6.80;;;4.75;;
22754;SDS011;11544;42.020;23.094;2023-03-24T01:20:29;7.28;;;5.20;;
22754;SDS011;11544;42.020;23.094;2023-03-24T01:23:01;10.57;;;6.10;;
22754;SDS011;11544;42.020;23.094;2023-03-24T01:25:30;8.13;;;4.72;;
22754;SDS011;11544;42.020;23.094;2023-03-24T01:27:57;10.63;;;6.40;;
22754;SDS011;11544;42.020;23.094;2023-03-24T01:30:28;8.40;;;5.55;;
22754;SDS011;11544;42.020;23.094;2023-03-24T01:32:56;8.45;;;5.65;;
22754;SDS011;11544;42.020;23.094;2023-03-24T01:35:23;5.20;;;4.03;;
22754;SDS011;11544;42.020;23.094;2023-03-24T01:37:54;10.30;;;5.18;;
22754;SDS011;11544;42.020;23.094;2023-03-24T01:40:27;5.97;;;4.50;;
22754;SDS011;11544;42.020;23.094;2023-03-24T01:42:56;5.97;;;4.15;;
22754;SDS011;11544;42.020;23.094;2023-03-24T01:48:10;5.32;;;3.88;;
22754;SDS011;11544;42.020;23.094;2023-03-24T01:50:38;5.55;;;4.45;;
22754;SDS011;11544;42.020;23.094;2023-03-24T01:53:07;6.90;;;4.38;;
22754;SDS011;11544;42.020;23.094;2023-03-24T01:55:34;8.63;;;4.80;;
22754;SDS011;11544;42.020;23.094;2023-03-24T01:58:02;6.53;;;4.28;;
22754;SDS011;11544;42.020;23.094;2023-03-24T02:00:30;6.75;;;4.65;;
22754;SDS011;11544;42.020;23.094;2023-03-24T02:02:58;5.60;;;4.22;;
22754;SDS011;11544;42.020;23.094;2023-03-24T02:05:31;7.00;;;4.90;;
22754;SDS011;11544;42.020;23.094;2023-03-24T02:10:54;6.97;;;5.05;;
22754;SDS011;11544;42.020;23.094;2023-03-24T02:13:22;12.93;;;5.85;;
22754;SDS011;11544;42.020;23.094;2023-03-24T02:24:21;9.18;;;5.97;;
22754;SDS011;11544;42.020;23.094;2023-03-24T02:59:44;6.22;;;4.55;;
22754;SDS011;11544;42.020;23.094;2023-03-24T03:02:22;6.25;;;4.40;;
22754;SDS011;11544;42.020;23.094;2023-03-24T03:05:02;5.47;;;4.68;;
22754;SDS011;11544;42.020;23.094;2023-03-24T03:07:32;9.02;;;5.03;;
22754;SDS011;11544;42.020;23.094;2023-03-24T03:10:11;7.15;;;4.88;;
22754;SDS011;11544;42.020;23.094;2023-03-24T03:12:45;7.88;;;4.50;;
22754;SDS011;11544;42.020;23.094;2023-03-24T03:15:24;8.55;;;5.15;;
22754;SDS011;11544;42.020;23.094;2023-03-24T03:18:04;8.60;;;5.20;;
22754;SDS011;11544;42.020;23.094;2023-03-24T03:20:41;6.45;;;4.40;;
22754;SDS011;11544;42.020;23.094;2023-03-24T03:23:22;6.40;;;4.70;;
22754;SDS011;11544;42.020;23.094;2023-03-24T03:25:52;9.38;;;4.50;;
22754;SDS011;11544;42.020;23.094;2023-03-24T03:28:27;6.78;;;5.32;;
22754;SDS011;11544;42.020;23.094;2023-03-24T03:30:56;8.02;;;5.03;;
22754;SDS011;11544;42.020;23.094;2023-03-24T03:33:33;11.95;;;6.68;;
22754;SDS011;11544;42.020;23.094;2023-03-24T03:36:14;12.82;;;8.18;;
22754;SDS011;11544;42.020;23.094;2023-03-24T03:39:09;18.17;;;8.75;;
22754;SDS011;11544;42.020;23.094;2023-03-24T03:41:45;15.88;;;8.02;;
22754;SDS011;11544;42.020;23.094;2023-03-24T03:44:20;12.85;;;8.35;;
22754;SDS011;11544;42.020;23.094;2023-03-24T03:46:54;13.00;;;8.30;;
22754;SDS011;11544;42.020;23.094;2023-03-24T03:49:21;13.45;;;8.68;;
22754;SDS011;11544;42.020;23.094;2023-03-24T03:51:51;12.10;;;8.07;;
22754;SDS011;11544;42.020;23.094;2023-03-24T03:54:19;11.63;;;8.10;;
22754;SDS011;11544;42.020;23.094;2023-03-24T03:56:48;13.85;;;9.02;;
22754;SDS011;11544;42.020;23.094;2023-03-24T03:59:28;13.65;;;8.80;;
22754;SDS011;11544;42.020;23.094;2023-03-24T04:16:33;8.82;;;6.15;;
22754;SDS011;11544;42.020;23.094;2023-03-24T04:22:22;9.20;;;6.20;;
22754;SDS011;11544;42.020;23.094;2023-03-24T04:24:58;11.10;;;7.18;;
22754;SDS011;11544;42.020;23.094;2023-03-24T04:35:35;11.68;;;7.32;;
22754;SDS011;11544;42.020;23.094;2023-03-24T04:38:29;13.75;;;8.23;;
22754;SDS011;11544;42.020;23.094;2023-03-24T04:40:58;9.77;;;6.88;;
22754;SDS011;11544;42.020;23.094;2023-03-24T04:43:30;14.98;;;7.20;;
22754;SDS011;11544;42.020;23.094;2023-03-24T04:46:08;9.77;;;6.85;;
22754;SDS011;11544;42.020;23.094;2023-03-24T04:48:35;9.73;;;6.32;;
22754;SDS011;11544;42.020;23.094;2023-03-24T04:51:35;9.63;;;5.85;;
22754;SDS011;11544;42.020;23.094;2023-03-24T04:54:10;9.27;;;6.07;;
22754;SDS011;11544;42.020;23.094;2023-03-24T04:56:40;8.93;;;5.72;;
22754;SDS011;11544;42.020;23.094;2023-03-24T04:59:37;10.93;;;6.47;;
22754;SDS011;11544;42.020;23.094;2023-03-24T05:02:04;10.77;;;6.30;;
22754;SDS011;11544;42.020;23.094;2023-03-24T05:04:31;13.32;;;8.43;;
22754;SDS011;11544;42.020;23.094;2023-03-24T05:07:05;12.88;;;8.63;;
22754;SDS011;11544;42.020;23.094;2023-03-24T05:09:39;12.80;;;8.43;;
22754;SDS011;11544;42.020;23.094;2023-03-24T05:12:11;13.40;;;8.40;;
22754;SDS011;11544;42.020;23.094;2023-03-24T05:14:38;16.80;;;8.98;;
22754;SDS011;11544;42.020;23.094;2023-03-24T05:17:09;16.33;;;8.23;;
22754;SDS011;11544;42.020;23.094;2023-03-24T05:19:48;18.35;;;9.63;;
22754;SDS011;11544;42.020;23.094;2023-03-24T05:22:33;24.80;;;10.60;;
22754;SDS011;11544;42.020;23.094;2023-03-24T05:25:09;18.65;;;9.38;;
22754;SDS011;11544;42.020;23.094;2023-03-24T05:27:36;17.10;;;9.85;;
22754;SDS011;11544;42.020;23.094;2023-03-24T05:30:04;19.73;;;11.15;;
22754;SDS011;11544;42.020;23.094;2023-03-24T05:32:32;19.40;;;10.70;;
22754;SDS011;11544;42.020;23.094;2023-03-24T05:35:00;20.27;;;11.40;;
22754;SDS011;11544;42.020;23.094;2023-03-24T05:37:26;20.52;;;10.52;;
22754;SDS011;11544;42.020;23.094;2023-03-24T05:39:53;19.67;;;10.75;;
22754;SDS011;11544;42.020;23.094;2023-03-24T05:42:25;21.13;;;11.35;;
22754;SDS011;11544;42.020;23.094;2023-03-24T05:44:52;20.05;;;11.82;;
22754;SDS011;11544;42.020;23.094;2023-03-24T05:47:19;25.83;;;11.93;;
22754;SDS011;11544;42.020;23.094;2023-03-24T05:49:46;22.05;;;11.93;;
22754;SDS011;11544;42.020;23.094;2023-03-24T05:52:13;21.98;;;10.50;;
22754;SDS011;11544;42.020;23.094;2023-03-24T05:54:42;18.33;;;10.85;;
22754;SDS011;11544;42.020;23.094;2023-03-24T05:57:12;18.77;;;11.18;;
22754;SDS011;11544;42.020;23.094;2023-03-24T05:59:43;22.23;;;11.60;;
22754;SDS011;11544;42.020;23.094;2023-03-24T06:02:13;16.55;;;10.27;;
22754;SDS011;11544;42.020;23.094;2023-03-24T06:04:41;15.57;;;10.88;;
22754;SDS011;11544;42.020;23.094;2023-03-24T06:07:16;14.85;;;10.00;;
22754;SDS011;11544;42.020;23.094;2023-03-24T06:10:02;17.90;;;11.00;;
22754;SDS011;11544;42.020;23.094;2023-03-24T06:12:33;15.48;;;10.20;;
22754;SDS011;11544;42.020;23.094;2023-03-24T06:15:00;16.42;;;11.13;;
22754;SDS011;11544;42.020;23.094;2023-03-24T06:17:27;17.27;;;10.88;;
22754;SDS011;11544;42.020;23.094;2023-03-24T06:20:19;17.85;;;10.15;;
22754;SDS011;11544;42.020;23.094;2023-03-24T06:22:47;17.30;;;10.45;;
22754;SDS011;11544;42.020;23.094;2023-03-24T06:25:25;17.92;;;11.48;;
22754;SDS011;11544;42.020;23.094;2023-03-24T06:27:54;19.23;;;11.43;;
22754;SDS011;11544;42.020;23.094;2023-03-24T06:30:21;20.17;;;11.85;;
22754;SDS011;11544;42.020;23.094;2023-03-24T06:33:07;17.58;;;10.55;;
22754;SDS011;11544;42.020;23.094;2023-03-24T06:35:34;15.38;;;10.27;;
22754;SDS011;11544;42.020;23.094;2023-03-24T06:38:13;17.63;;;12.32;;
22754;SDS011;11544;42.020;23.094;2023-03-24T06:40:43;22.98;;;11.30;;
22754;SDS011;11544;42.020;23.094;2023-03-24T06:43:10;19.27;;;10.65;;
22754;SDS011;11544;42.020;23.094;2023-03-24T06:45:37;17.70;;;11.50;;
22754;SDS011;11544;42.020;23.094;2023-03-24T06:48:05;15.65;;;10.63;;
22754;SDS011;11544;42.020;23.094;2023-03-24T06:50:32;18.67;;;10.98;;
22754;SDS011;11544;42.020;23.094;2023-03-24T06:53:01;15.45;;;10.55;;
22754;SDS011;11544;42.020;23.094;2023-03-24T06:55:28;21.00;;;11.85;;
22754;SDS011;11544;42.020;23.094;2023-03-24T06:57:55;20.58;;;11.30;;
22754;SDS011;11544;42.020;23.094;2023-03-24T07:00:22;20.02;;;12.48;;
22754;SDS011;11544;42.020;23.094;2023-03-24T07:02:51;17.17;;;11.57;;
22754;SDS011;11544;42.020;23.094;2023-03-24T07:05:18;23.85;;;11.85;;
22754;SDS011;11544;42.020;23.094;2023-03-24T07:07:46;20.80;;;10.85;;
22754;SDS011;11544;42.020;23.094;2023-03-24T07:10:19;18.50;;;11.55;;
22754;SDS011;11544;42.020;23.094;2023-03-24T07:12:48;20.20;;;12.50;;
22754;SDS011;11544;42.020;23.094;2023-03-24T07:15:15;22.33;;;11.63;;
22754;SDS011;11544;42.020;23.094;2023-03-24T07:17:42;17.13;;;11.10;;
22754;SDS011;11544;42.020;23.094;2023-03-24T07:20:09;16.77;;;11.75;;
22754;SDS011;11544;42.020;23.094;2023-03-24T07:22:36;22.30;;;10.60;;
22754;SDS011;11544;42.020;23.094;2023-03-24T07:25:04;19.23;;;12.18;;
22754;SDS011;11544;42.020;23.094;2023-03-24T07:27:46;18.45;;;11.07;;
22754;SDS011;11544;42.020;23.094;2023-03-24T07:30:13;16.00;;;10.98;;
22754;SDS011;11544;42.020;23.094;2023-03-24T07:32:40;17.27;;;11.25;;
22754;SDS011;11544;42.020;23.094;2023-03-24T07:35:08;14.38;;;10.73;;
22754;SDS011;11544;42.020;23.094;2023-03-24T07:37:37;19.35;;;12.07;;
22754;SDS011;11544;42.020;23.094;2023-03-24T07:40:06;21.58;;;11.80;;
22754;SDS011;11544;42.020;23.094;2023-03-24T07:42:38;18.00;;;11.40;;
22754;SDS011;11544;42.020;23.094;2023-03-24T07:45:07;19.73;;;11.10;;
22754;SDS011;11544;42.020;23.094;2023-03-24T07:47:36;17.65;;;10.15;;
22754;SDS011;11544;42.020;23.094;2023-03-24T07:50:05;16.17;;;9.80;;
22754;SDS011;11544;42.020;23.094;2023-03-24T07:52:36;14.23;;;9.77;;
22754;SDS011;11544;42.020;23.094;2023-03-24T07:55:07;17.73;;;9.68;;
22754;SDS011;11544;42.020;23.094;2023-03-24T07:57:39;14.75;;;10.43;;
22754;SDS011;11544;42.020;23.094;2023-03-24T08:00:12;15.38;;;10.18;;
22754;SDS011;11544;42.020;23.094;2023-03-24T08:02:44;16.35;;;10.75;;
22754;SDS011;11544;42.020;23.094;2023-03-24T08:05:13;16.10;;;10.88;;
22754;SDS011;11544;42.020;23.094;2023-03-24T08:07:43;17.40;;;9.70;;
22754;SDS011;11544;42.020;23.094;2023-03-24T08:10:19;17.35;;;10.93;;
22754;SDS011;11544;42.020;23.094;2023-03-24T08:12:49;15.65;;;9.45;;
22754;SDS011;11544;42.020;23.094;2023-03-24T08:15:16;17.58;;;9.95;;
22754;SDS011;11544;42.020;23.094;2023-03-24T08:17:44;17.70;;;11.55;;
22754;SDS011;11544;42.020;23.094;2023-03-24T08:20:14;14.18;;;9.45;;
22754;SDS011;11544;42.020;23.094;2023-03-24T08:22:42;13.70;;;9.55;;
22754;SDS011;11544;42.020;23.094;2023-03-24T08:25:11;11.57;;;8.98;;
22754;SDS011;11544;42.020;23.094;2023-03-24T08:27:39;14.50;;;8.70;;
22754;SDS011;11544;42.020;23.094;2023-03-24T08:30:09;14.13;;;8.93;;
22754;SDS011;11544;42.020;23.094;2023-03-24T08:32:47;12.48;;;8.88;;
22754;SDS011;11544;42.020;23.094;2023-03-24T08:35:22;13.32;;;9.43;;
22754;SDS011;11544;42.020;23.094;2023-03-24T08:37:59;10.82;;;8.15;;
22754;SDS011;11544;42.020;23.094;2023-03-24T08:40:31;14.18;;;9.75;;
22754;SDS011;11544;42.020;23.094;2023-03-24T08:43:01;15.80;;;9.05;;
22754;SDS011;11544;42.020;23.094;2023-03-24T08:45:34;15.32;;;8.85;;
22754;SDS011;11544;42.020;23.094;2023-03-24T08:48:02;15.60;;;9.80;;
22754;SDS011;11544;42.020;23.094;2023-03-24T08:50:32;11.93;;;9.00;;
22754;SDS011;11544;42.020;23.094;2023-03-24T08:53:02;16.23;;;9.43;;
22754;SDS011;11544;42.020;23.094;2023-03-24T08:55:29;11.93;;;8.93;;
22754;SDS011;11544;42.020;23.094;2023-03-24T08:58:00;10.13;;;7.60;;
22754;SDS011;11544;42.020;23.094;2023-03-24T09:00:30;12.80;;;9.05;;
22754;SDS011;11544;42.020;23.094;2023-03-24T09:02:57;12.15;;;9.30;;
22754;SDS011;11544;42.020;23.094;2023-03-24T09:05:27;11.90;;;8.57;;
22754;SDS011;11544;42.020;23.094;2023-03-24T09:08:10;15.63;;;8.50;;
22754;SDS011;11544;42.020;23.094;2023-03-24T09:10:39;10.75;;;8.15;;
22754;SDS011;11544;42.020;23.094;2023-03-24T09:13:07;11.00;;;7.43;;
22754;SDS011;11544;42.020;23.094;2023-03-24T09:15:34;11.05;;;7.72;;
22754;SDS011;11544;42.020;23.094;2023-03-24T09:18:02;13.70;;;8.85;;
22754;SDS011;11544;42.020;23.094;2023-03-24T09:20:29;14.05;;;8.50;;
22754;SDS011;11544;42.020;23.094;2023-03-24T09:22:56;12.27;;;9.32;;
22754;SDS011;11544;42.020;23.094;2023-03-24T09:25:23;10.52;;;7.90;;
22754;SDS011;11544;42.020;23.094;2023-03-24T09:27:50;11.63;;;8.60;;
22754;SDS011;11544;42.020;23.094;2023-03-24T09:30:19;11.25;;;8.82;;
22754;SDS011;11544;42.020;23.094;2023-03-24T09:32:46;10.38;;;6.93;;
22754;SDS011;11544;42.020;23.094;2023-03-24T09:35:13;10.80;;;7.53;;
22754;SDS011;11544;42.020;23.094;2023-03-24T09:37:41;12.77;;;7.15;;
22754;SDS011;11544;42.020;23.094;2023-03-24T09:40:17;11.57;;;7.57;;
22754;SDS011;11544;42.020;23.094;2023-03-24T09:43:00;12.30;;;8.50;;
22754;SDS011;11544;42.020;23.094;2023-03-24T09:45:42;10.10;;;6.97;;
22754;SDS011;11544;42.020;23.094;2023-03-24T09:51:09;9.35;;;7.40;;
22754;SDS011;11544;42.020;23.094;2023-03-24T09:54:01;8.60;;;5.68;;
22754;SDS011;11544;42.020;23.094;2023-03-24T09:56:54;7.22;;;5.88;;
22754;SDS011;11544;42.020;23.094;2023-03-24T10:02:19;9.90;;;5.80;;
22754;SDS011;11544;42.020;23.094;2023-03-24T10:04:50;6.63;;;5.68;;
22754;SDS011;11544;42.020;23.094;2023-03-24T10:07:24;9.20;;;5.45;;
22754;SDS011;11544;42.020;23.094;2023-03-24T10:10:00;8.35;;;4.68;;
22754;SDS011;11544;42.020;23.094;2023-03-24T10:21:02;5.50;;;4.75;;
22754;SDS011;11544;42.020;23.094;2023-03-24T10:23:47;6.88;;;4.70;;
22754;SDS011;11544;42.020;23.094;2023-03-24T10:31:56;5.80;;;4.50;;
22754;SDS011;11544;42.020;23.094;2023-03-24T10:34:30;7.20;;;4.80;;
22754;SDS011;11544;42.020;23.094;2023-03-24T10:37:01;5.28;;;4.63;;
22754;SDS011;11544;42.020;23.094;2023-03-24T10:39:30;6.50;;;4.78;;
22754;SDS011;11544;42.020;23.094;2023-03-24T10:42:22;7.60;;;4.65;;
22754;SDS011;11544;42.020;23.094;2023-03-24T10:44:52;6.95;;;4.65;;
22754;SDS011;11544;42.020;23.094;2023-03-24T10:47:23;10.88;;;5.15;;
22754;SDS011;11544;42.020;23.094;2023-03-24T10:50:04;9.35;;;5.60;;
22754;SDS011;11544;42.020;23.094;2023-03-24T10:52:41;10.82;;;5.03;;
22754;SDS011;11544;42.020;23.094;2023-03-24T10:55:17;5.47;;;4.07;;
22754;SDS011;11544;42.020;23.094;2023-03-24T10:57:47;8.10;;;4.20;;
22754;SDS011;11544;42.020;23.094;2023-03-24T11:03:04;7.75;;;4.75;;
22754;SDS011;11544;42.020;23.094;2023-03-24T11:05:35;8.55;;;6.38;;
22754;SDS011;11544;42.020;23.094;2023-03-24T11:10:43;6.10;;;4.35;;
22754;SDS011;11544;42.020;23.094;2023-03-24T11:16:14;8.05;;;4.05;;
22754;SDS011;11544;42.020;23.094;2023-03-24T11:18:53;4.38;;;3.83;;
22754;SDS011;11544;42.020;23.094;2023-03-24T11:21:24;4.53;;;3.90;;
22754;SDS011;11544;42.020;23.094;2023-03-24T11:23:53;5.22;;;3.85;;
22754;SDS011;11544;42.020;23.094;2023-03-24T11:26:32;4.40;;;3.30;;
22754;SDS011;11544;42.020;23.094;2023-03-24T11:29:09;5.93;;;3.83;;
22754;SDS011;11544;42.020;23.094;2023-03-24T11:31:48;7.18;;;4.63;;
22754;SDS011;11544;42.020;23.094;2023-03-24T11:34:31;4.30;;;3.75;;
22754;SDS011;11544;42.020;23.094;2023-03-24T11:37:15;8.10;;;3.90;;
22754;SDS011;11544;42.020;23.094;2023-03-24T11:40:34;10.82;;;3.22;;
22754;SDS011;11544;42.020;23.094;2023-03-24T11:42:45;4.45;;;3.25;;
22754;SDS011;11544;42.020;23.094;2023-03-24T11:48:00;7.85;;;3.63;;
22754;SDS011;11544;42.020;23.094;2023-03-24T11:50:34;4.78;;;3.25;;
22754;SDS011;11544;42.020;23.094;2023-03-24T11:58:20;4.93;;;3.47;;
22754;SDS011;11544;42.020;23.094;2023-03-24T12:15:54;2.17;;;1.80;;
22754;SDS011;11544;42.020;23.094;2023-03-24T12:24:14;3.55;;;2.35;;
22754;SDS011;11544;42.020;23.094;2023-03-24T12:26:48;5.50;;;2.70;;
22754;SDS011;11544;42.020;23.094;2023-03-24T12:29:29;3.63;;;2.45;;
22754;SDS011;11544;42.020;23.094;2023-03-24T12:35:09;5.95;;;3.38;;
22754;SDS011;11544;42.020;23.094;2023-03-24T12:38:06;3.30;;;2.65;;
22754;SDS011;11544;42.020;23.094;2023-03-24T12:46:21;3.33;;;2.60;;
22754;SDS011;11544;42.020;23.094;2023-03-24T12:57:38;3.28;;;2.67;;
22754;SDS011;11544;42.020;23.094;2023-03-24T13:00:24;4.47;;;2.38;;
22754;SDS011;11544;42.020;23.094;2023-03-24T13:03:20;2.75;;;2.15;;
22754;SDS011;11544;42.020;23.094;2023-03-24T13:05:57;2.95;;;2.25;;
22754;SDS011;11544;42.020;23.094;2023-03-24T13:08:42;2.53;;;2.10;;
22754;SDS011;11544;42.020;23.094;2023-03-24T13:11:14;3.28;;;2.20;;
22754;SDS011;11544;42.020;23.094;2023-03-24T13:13:58;4.72;;;2.30;;
22754;SDS011;11544;42.020;23.094;2023-03-24T13:16:29;2.42;;;2.22;;
22754;SDS011;11544;42.020;23.094;2023-03-24T13:19:01;4.03;;;2.30;;
22754;SDS011;11544;42.020;23.094;2023-03-24T13:21:29;4.07;;;3.20;;
22754;SDS011;11544;42.020;23.094;2023-03-24T13:24:07;2.67;;;2.17;;
22754;SDS011;11544;42.020;23.094;2023-03-24T13:26:49;3.97;;;2.10;;
22754;SDS011;11544;42.020;23.094;2023-03-24T13:37:50;7.07;;;2.08;;
22754;SDS011;11544;42.020;23.094;2023-03-24T13:40:24;3.75;;;2.80;;
22754;SDS011;11544;42.020;23.094;2023-03-24T13:42:54;2.67;;;2.17;;
22754;SDS011;11544;42.020;23.094;2023-03-24T13:50:32;3.92;;;2.00;;
22754;SDS011;11544;42.020;23.094;2023-03-24T13:53:15;2.10;;;1.40;;
22754;SDS011;11544;42.020;23.094;2023-03-24T13:55:50;3.88;;;2.03;;
22754;SDS011;11544;42.020;23.094;2023-03-24T13:58:21;1.98;;;1.60;;
22754;SDS011;11544;42.020;23.094;2023-03-24T14:01:04;4.05;;;1.58;;
22754;SDS011;11544;42.020;23.094;2023-03-24T14:03:35;3.80;;;2.53;;
22754;SDS011;11544;42.020;23.094;2023-03-24T14:06:17;2.47;;;2.08;;
22754;SDS011;11544;42.020;23.094;2023-03-24T14:09:23;2.13;;;1.92;;
22754;SDS011;11544;42.020;23.094;2023-03-24T14:14:34;2.22;;;2.00;;
22754;SDS011;11544;42.020;23.094;2023-03-24T14:17:22;11.32;;;3.00;;
22754;SDS011;11544;42.020;23.094;2023-03-24T14:22:34;5.68;;;2.33;;
22754;SDS011;11544;42.020;23.094;2023-03-24T14:27:53;4.95;;;2.50;;
22754;SDS011;11544;42.020;23.094;2023-03-24T14:30:33;4.88;;;2.47;;
22754;SDS011;11544;42.020;23.094;2023-03-24T14:33:20;4.25;;;2.38;;
22754;SDS011;11544;42.020;23.094;2023-03-24T14:35:54;3.13;;;2.50;;
22754;SDS011;11544;42.020;23.094;2023-03-24T14:38:27;6.05;;;2.30;;
22754;SDS011;11544;42.020;23.094;2023-03-24T14:40:58;3.95;;;2.42;;
22754;SDS011;11544;42.020;23.094;2023-03-24T14:54:46;4.05;;;2.50;;
22754;SDS011;11544;42.020;23.094;2023-03-24T14:57:28;2.42;;;1.98;;
22754;SDS011;11544;42.020;23.094;2023-03-24T15:00:07;5.00;;;2.40;;
22754;SDS011;11544;42.020;23.094;2023-03-24T15:05:36;5.03;;;3.15;;
22754;SDS011;11544;42.020;23.094;2023-03-24T15:10:48;5.95;;;3.40;;
22754;SDS011;11544;42.020;23.094;2023-03-24T15:16:00;8.45;;;3.85;;
22754;SDS011;11544;42.020;23.094;2023-03-24T15:24:24;5.15;;;4.05;;
22754;SDS011;11544;42.020;23.094;2023-03-24T15:27:07;10.73;;;5.70;;
22754;SDS011;11544;42.020;23.094;2023-03-24T15:29:48;6.43;;;4.72;;
22754;SDS011;11544;42.020;23.094;2023-03-24T15:32:23;8.52;;;4.40;;
22754;SDS011;11544;42.020;23.094;2023-03-24T15:34:54;8.23;;;4.50;;
22754;SDS011;11544;42.020;23.094;2023-03-24T15:37:30;5.78;;;4.20;;
22754;SDS011;11544;42.020;23.094;2023-03-24T15:40:06;6.07;;;4.60;;
22754;SDS011;11544;42.020;23.094;2023-03-24T15:42:59;5.82;;;4.22;;
22754;SDS011;11544;42.020;23.094;2023-03-24T15:45:43;5.50;;;3.83;;
22754;SDS011;11544;42.020;23.094;2023-03-24T15:48:29;6.50;;;3.83;;
22754;SDS011;11544;42.020;23.094;2023-03-24T15:51:16;6.53;;;3.85;;
22754;SDS011;11544;42.020;23.094;2023-03-24T15:53:44;5.60;;;3.85;;
22754;SDS011;11544;42.020;23.094;2023-03-24T15:56:30;7.38;;;3.40;;
22754;SDS011;11544;42.020;23.094;2023-03-24T15:59:12;7.22;;;4.05;;
22754;SDS011;11544;42.020;23.094;2023-03-24T16:01:41;5.03;;;3.83;;
22754;SDS011;11544;42.020;23.094;2023-03-24T16:04:12;5.78;;;4.07;;
22754;SDS011;11544;42.020;23.094;2023-03-24T16:06:41;6.05;;;3.80;;
22754;SDS011;11544;42.020;23.094;2023-03-24T16:09:16;6.28;;;4.32;;
22754;SDS011;11544;42.020;23.094;2023-03-24T16:11:53;4.85;;;3.90;;
22754;SDS011;11544;42.020;23.094;2023-03-24T16:14:21;9.35;;;4.25;;
22754;SDS011;11544;42.020;23.094;2023-03-24T16:16:56;8.13;;;4.50;;
22754;SDS011;11544;42.020;23.094;2023-03-24T16:19:25;8.98;;;4.40;;
22754;SDS011;11544;42.020;23.094;2023-03-24T16:21:53;13.93;;;4.60;;
22754;SDS011;11544;42.020;23.094;2023-03-24T16:24:20;8.73;;;4.80;;
22754;SDS011;11544;42.020;23.094;2023-03-24T16:26:49;13.02;;;5.35;;
22754;SDS011;11544;42.020;23.094;2023-03-24T16:29:19;9.50;;;5.93;;
22754;SDS011;11544;42.020;23.094;2023-03-24T16:31:51;10.48;;;5.18;;
22754;SDS011;11544;42.020;23.094;2023-03-24T16:34:26;8.93;;;5.70;;
22754;SDS011;11544;42.020;23.094;2023-03-24T16:36:53;8.52;;;5.57;;
22754;SDS011;11544;42.020;23.094;2023-03-24T16:39:26;10.93;;;5.60;;
22754;SDS011;11544;42.020;23.094;2023-03-24T16:41:54;6.40;;;5.32;;
22754;SDS011;11544;42.020;23.094;2023-03-24T16:44:22;7.00;;;5.40;;
22754;SDS011;11544;42.020;23.094;2023-03-24T16:46:50;10.70;;;6.88;;
22754;SDS011;11544;42.020;23.094;2023-03-24T16:49:33;6.15;;;5.07;;
22754;SDS011;11544;42.020;23.094;2023-03-24T16:52:24;8.95;;;5.35;;
22754;SDS011;11544;42.020;23.094;2023-03-24T17:09:06;10.75;;;6.22;;
22754;SDS011;11544;42.020;23.094;2023-03-24T17:11:34;14.43;;;8.00;;
22754;SDS011;11544;42.020;23.094;2023-03-24T17:14:24;10.85;;;7.05;;
22754;SDS011;11544;42.020;23.094;2023-03-24T17:20:55;20.88;;;10.50;;
22754;SDS011;11544;42.020;23.094;2023-03-24T17:23:35;9.82;;;6.75;;
22754;SDS011;11544;42.020;23.094;2023-03-24T17:26:02;11.25;;;7.55;;
22754;SDS011;11544;42.020;23.094;2023-03-24T17:28:30;10.10;;;7.32;;
22754;SDS011;11544;42.020;23.094;2023-03-24T17:30:57;9.52;;;6.28;;
22754;SDS011;11544;42.020;23.094;2023-03-24T17:33:24;7.88;;;5.22;;
22754;SDS011;11544;42.020;23.094;2023-03-24T17:35:52;6.88;;;5.32;;
22754;SDS011;11544;42.020;23.094;2023-03-24T17:38:19;6.70;;;4.93;;
22754;SDS011;11544;42.020;23.094;2023-03-24T17:40:46;7.47;;;5.00;;
22754;SDS011;11544;42.020;23.094;2023-03-24T17:43:14;7.20;;;4.95;;
22754;SDS011;11544;42.020;23.094;2023-03-24T17:45:41;7.75;;;5.35;;
22754;SDS011;11544;42.020;23.094;2023-03-24T17:48:08;7.78;;;5.50;;
22754;SDS011;11544;42.020;23.094;2023-03-24T17:50:35;7.95;;;5.15;;
22754;SDS011;11544;42.020;23.094;2023-03-24T17:53:02;9.82;;;6.80;;
22754;SDS011;11544;42.020;23.094;2023-03-24T17:55:29;9.23;;;6.65;;
22754;SDS011;11544;42.020;23.094;2023-03-24T17:57:56;10.35;;;6.68;;
22754;SDS011;11544;42.020;23.094;2023-03-24T18:00:23;11.15;;;7.32;;
22754;SDS011;11544;42.020;23.094;2023-03-24T18:02:50;11.20;;;6.88;;
22754;SDS011;11544;42.020;23.094;2023-03-24T18:05:18;10.00;;;7.38;;
22754;SDS011;11544;42.020;23.094;2023-03-24T18:07:45;10.35;;;7.40;;
22754;SDS011;11544;42.020;23.094;2023-03-24T18:10:15;14.40;;;8.35;;
22754;SDS011;11544;42.020;23.094;2023-03-24T18:12:42;9.98;;;6.30;;
22754;SDS011;11544;42.020;23.094;2023-03-24T18:15:09;12.13;;;7.68;;
22754;SDS011;11544;42.020;23.094;2023-03-24T18:17:37;10.63;;;7.82;;
22754;SDS011;11544;42.020;23.094;2023-03-24T18:20:07;12.27;;;7.82;;
22754;SDS011;11544;42.020;23.094;2023-03-24T18:22:53;11.27;;;7.80;;
22754;SDS011;11544;42.020;23.094;2023-03-24T18:25:20;14.00;;;8.20;;
22754;SDS011;11544;42.020;23.094;2023-03-24T18:27:47;12.43;;;7.63;;
22754;SDS011;11544;42.020;23.094;2023-03-24T18:30:15;10.48;;;6.43;;